sensor_id;sensor_type;location;lat;lon;timestamp;temperature;humidity
5492;DHT22;2768;53.540;10.224;2023-04-24T00:01:37;14.50;99.90
5492;DHT22;2768;53.540;10.224;2023-04-24T00:07:31;14.50;99.90
5492;DHT22;2768;53.540;10.224;2023-04-24T00:13:26;14.50;99.90
5492;DHT22;2768;53.540;10.224;2023-04-24T00:19:20;14.40;99.90
5492;DHT22;2768;53.540;10.224;2023-04-24T00:25:14;14.50;99.90
5492;DHT22;2768;53.540;10.224;2023-04-24T00:31:09;14.60;99.90
5492;DHT22;2768;53.540;10.224;2023-04-24T00:37:02;14.50;99.90
5492;DHT22;2768;53.540;10.224;2023-04-24T00:42:56;14.40;99.90
5492;DHT22;2768;53.540;10.224;2023-04-24T00:48:50;14.40;99.90
5492;DHT22;2768;53.540;10.224;2023-04-24T00:54:43;14.30;99.90
5492;DHT22;2768;53.540;10.224;2023-04-24T01:00:37;14.30;99.90
5492;DHT22;2768;53.540;10.224;2023-04-24T01:06:32;14.30;99.90
5492;DHT22;2768;53.540;10.224;2023-04-24T01:12:26;14.30;99.90
5492;DHT22;2768;53.540;10.224;2023-04-24T01:18:20;14.20;99.90
5492;DHT22;2768;53.540;10.224;2023-04-24T01:24:16;14.30;99.90
5492;DHT22;2768;53.540;10.224;2023-04-24T01:30:12;14.10;99.90
5492;DHT22;2768;53.540;10.224;2023-04-24T01:36:06;14.00;99.90
5492;DHT22;2768;53.540;10.224;2023-04-24T01:42:09;14.10;99.90
5492;DHT22;2768;53.540;10.224;2023-04-24T01:48:23;14.00;99.90
5492;DHT22;2768;53.540;10.224;2023-04-24T01:54:16;13.90;99.90
5492;DHT22;2768;53.540;10.224;2023-04-24T02:00:11;13.80;99.90
5492;DHT22;2768;53.540;10.224;2023-04-24T02:06:05;13.80;99.90
5492;DHT22;2768;53.540;10.224;2023-04-24T02:11:59;13.80;99.90
5492;DHT22;2768;53.540;10.224;2023-04-24T02:17:54;13.80;99.90
5492;DHT22;2768;53.540;10.224;2023-04-24T02:23:48;13.70;99.90
5492;DHT22;2768;53.540;10.224;2023-04-24T02:29:41;13.60;99.90
5492;DHT22;2768;53.540;10.224;2023-04-24T02:35:36;13.50;99.90
5492;DHT22;2768;53.540;10.224;2023-04-24T02:41:30;13.40;99.90
5492;DHT22;2768;53.540;10.224;2023-04-24T02:47:24;13.30;99.90
5492;DHT22;2768;53.540;10.224;2023-04-24T02:53:19;13.30;99.90
5492;DHT22;2768;53.540;10.224;2023-04-24T02:59:12;13.30;99.90
5492;DHT22;2768;53.540;10.224;2023-04-24T03:05:06;13.10;99.90
5492;DHT22;2768;53.540;10.224;2023-04-24T03:11:02;13.10;99.90
5492;DHT22;2768;53.540;10.224;2023-04-24T03:16:55;13.10;99.90
5492;DHT22;2768;53.540;10.224;2023-04-24T03:22:48;13.00;99.90
5492;DHT22;2768;53.540;10.224;2023-04-24T03:28:44;13.00;99.90
5492;DHT22;2768;53.540;10.224;2023-04-24T03:34:37;13.00;99.90
5492;DHT22;2768;53.540;10.224;2023-04-24T03:40:32;12.90;99.90
5492;DHT22;2768;53.540;10.224;2023-04-24T03:46:29;12.90;99.90
5492;DHT22;2768;53.540;10.224;2023-04-24T03:52:25;12.80;99.90
5492;DHT22;2768;53.540;10.224;2023-04-24T03:58:19;12.90;99.90
5492;DHT22;2768;53.540;10.224;2023-04-24T04:04:15;12.70;99.90
5492;DHT22;2768;53.540;10.224;2023-04-24T04:10:10;12.70;99.90
5492;DHT22;2768;53.540;10.224;2023-04-24T04:16:04;12.70;99.90
5492;DHT22;2768;53.540;10.224;2023-04-24T04:21:58;12.70;99.90
5492;DHT22;2768;53.540;10.224;2023-04-24T04:28:01;12.60;99.90
5492;DHT22;2768;53.540;10.224;2023-04-24T04:33:54;12.60;99.90
5492;DHT22;2768;53.540;10.224;2023-04-24T04:39:49;12.50;99.90
5492;DHT22;2768;53.540;10.224;2023-04-24T04:45:46;12.60;99.90
5492;DHT22;2768;53.540;10.224;2023-04-24T04:51:58;12.50;99.90
5492;DHT22;2768;53.540;10.224;2023-04-24T04:57:54;12.60;99.90
5492;DHT22;2768;53.540;10.224;2023-04-24T05:03:49;12.70;99.90
5492;DHT22;2768;53.540;10.224;2023-04-24T05:09:42;12.50;99.90
5492;DHT22;2768;53.540;10.224;2023-04-24T05:15:38;12.50;99.90
5492;DHT22;2768;53.540;10.224;2023-04-24T05:21:32;12.50;99.90
5492;DHT22;2768;53.540;10.224;2023-04-24T05:27:25;12.40;99.90
5492;DHT22;2768;53.540;10.224;2023-04-24T05:33:20;12.70;99.90
5492;DHT22;2768;53.540;10.224;2023-04-24T05:39:14;12.70;99.90
5492;DHT22;2768;53.540;10.224;2023-04-24T05:45:08;12.70;99.90
5492;DHT22;2768;53.540;10.224;2023-04-24T05:51:09;12.70;99.90
5492;DHT22;2768;53.540;10.224;2023-04-24T05:57:03;12.60;99.90
5492;DHT22;2768;53.540;10.224;2023-04-24T06:03:13;12.50;99.90
5492;DHT22;2768;53.540;10.224;2023-04-24T06:09:08;12.70;99.90
5492;DHT22;2768;53.540;10.224;2023-04-24T06:15:01;12.80;99.90
5492;DHT22;2768;53.540;10.224;2023-04-24T06:21:12;12.80;99.90
5492;DHT22;2768;53.540;10.224;2023-04-24T06:27:07;12.90;99.90
5492;DHT22;2768;53.540;10.224;2023-04-24T06:33:00;13.00;99.90
5492;DHT22;2768;53.540;10.224;2023-04-24T06:39:10;12.70;92.40
5492;DHT22;2768;53.540;10.224;2023-04-24T06:45:06;12.80;92.20
5492;DHT22;2768;53.540;10.224;2023-04-24T06:50:59;12.90;90.00
5492;DHT22;2768;53.540;10.224;2023-04-24T06:56:52;12.90;90.50
5492;DHT22;2768;53.540;10.224;2023-04-24T07:02:47;12.80;84.30
5492;DHT22;2768;53.540;10.224;2023-04-24T07:08:40;12.90;78.10
5492;DHT22;2768;53.540;10.224;2023-04-24T07:14:35;13.00;74.20
5492;DHT22;2768;53.540;10.224;2023-04-24T07:20:30;13.20;75.60
5492;DHT22;2768;53.540;10.224;2023-04-24T07:26:23;13.10;61.60
5492;DHT22;2768;53.540;10.224;2023-04-24T07:32:17;13.20;66.90
5492;DHT22;2768;53.540;10.224;2023-04-24T07:38:12;13.50;62.00
5492;DHT22;2768;53.540;10.224;2023-04-24T07:44:05;13.40;61.50
5492;DHT22;2768;53.540;10.224;2023-04-24T07:49:58;13.50;59.30
5492;DHT22;2768;53.540;10.224;2023-04-24T07:55:54;13.40;42.00
5492;DHT22;2768;53.540;10.224;2023-04-24T08:01:47;13.60;35.70
5492;DHT22;2768;53.540;10.224;2023-04-24T08:07:40;13.50;36.90
5492;DHT22;2768;53.540;10.224;2023-04-24T08:13:36;13.50;30.00
5492;DHT22;2768;53.540;10.224;2023-04-24T08:19:29;13.20;34.30
5492;DHT22;2768;53.540;10.224;2023-04-24T08:25:22;13.10;41.50
5492;DHT22;2768;53.540;10.224;2023-04-24T08:31:17;13.20;34.90
5492;DHT22;2768;53.540;10.224;2023-04-24T08:37:11;13.50;43.10
5492;DHT22;2768;53.540;10.224;2023-04-24T08:43:04;13.50;32.30
5492;DHT22;2768;53.540;10.224;2023-04-24T08:48:59;13.40;29.50
5492;DHT22;2768;53.540;10.224;2023-04-24T08:54:53;13.50;40.10
5492;DHT22;2768;53.540;10.224;2023-04-24T09:00:48;13.60;38.00
5492;DHT22;2768;53.540;10.224;2023-04-24T09:06:43;13.40;38.50
5492;DHT22;2768;53.540;10.224;2023-04-24T09:12:37;13.30;29.80
5492;DHT22;2768;53.540;10.224;2023-04-24T09:18:30;13.40;35.40
5492;DHT22;2768;53.540;10.224;2023-04-24T09:24:25;13.30;25.60
5492;DHT22;2768;53.540;10.224;2023-04-24T09:30:21;13.50;30.70
5492;DHT22;2768;53.540;10.224;2023-04-24T09:36:17;13.20;22.90
5492;DHT22;2768;53.540;10.224;2023-04-24T09:42:12;13.20;25.20
5492;DHT22;2768;53.540;10.224;2023-04-24T09:48:09;13.10;28.90
5492;DHT22;2768;53.540;10.224;2023-04-24T09:54:03;13.40;25.10
5492;DHT22;2768;53.540;10.224;2023-04-24T09:59:58;13.60;29.30
5492;DHT22;2768;53.540;10.224;2023-04-24T10:06:02;13.50;19.80
5492;DHT22;2768;53.540;10.224;2023-04-24T10:12:01;13.60;15.70
5492;DHT22;2768;53.540;10.224;2023-04-24T10:17:57;13.60;17.00
5492;DHT22;2768;53.540;10.224;2023-04-24T10:23:52;14.20;13.30
5492;DHT22;2768;53.540;10.224;2023-04-24T10:29:45;14.30;7.00
5492;DHT22;2768;53.540;10.224;2023-04-24T10:35:42;14.30;4.60
5492;DHT22;2768;53.540;10.224;2023-04-24T10:41:38;14.00;3.30
5492;DHT22;2768;53.540;10.224;2023-04-24T10:47:39;13.90;2.50
5492;DHT22;2768;53.540;10.224;2023-04-24T10:53:35;13.50;5.70
5492;DHT22;2768;53.540;10.224;2023-04-24T10:59:34;13.30;4.00
5492;DHT22;2768;53.540;10.224;2023-04-24T11:05:50;13.40;9.20
5492;DHT22;2768;53.540;10.224;2023-04-24T11:11:46;13.80;9.60
5492;DHT22;2768;53.540;10.224;2023-04-24T11:17:42;13.70;2.10
5492;DHT22;2768;53.540;10.224;2023-04-24T11:23:36;13.70;1.00
5492;DHT22;2768;53.540;10.224;2023-04-24T11:29:41;14.50;3.80
5492;DHT22;2768;53.540;10.224;2023-04-24T11:35:39;14.40;1.00
5492;DHT22;2768;53.540;10.224;2023-04-24T11:41:33;14.60;1.00
5492;DHT22;2768;53.540;10.224;2023-04-24T11:47:31;14.50;1.00
5492;DHT22;2768;53.540;10.224;2023-04-24T11:53:25;14.80;1.00
5492;DHT22;2768;53.540;10.224;2023-04-24T11:59:18;14.20;1.00
5492;DHT22;2768;53.540;10.224;2023-04-24T12:05:20;13.90;1.00
5492;DHT22;2768;53.540;10.224;2023-04-24T12:11:16;13.80;1.00
5492;DHT22;2768;53.540;10.224;2023-04-24T12:17:10;15.70;1.00
5492;DHT22;2768;53.540;10.224;2023-04-24T12:23:04;16.90;1.00
5492;DHT22;2768;53.540;10.224;2023-04-24T12:29:01;16.30;1.00
5492;DHT22;2768;53.540;10.224;2023-04-24T12:34:56;15.00;1.00
5492;DHT22;2768;53.540;10.224;2023-04-24T12:41:02;14.60;1.00
5492;DHT22;2768;53.540;10.224;2023-04-24T12:46:56;15.00;1.00
5492;DHT22;2768;53.540;10.224;2023-04-24T12:52:49;14.70;1.00
5492;DHT22;2768;53.540;10.224;2023-04-24T12:58:44;14.30;1.00
5492;DHT22;2768;53.540;10.224;2023-04-24T13:04:37;14.10;1.00
5492;DHT22;2768;53.540;10.224;2023-04-24T13:10:30;13.60;1.00
5492;DHT22;2768;53.540;10.224;2023-04-24T13:16:25;13.30;1.00
5492;DHT22;2768;53.540;10.224;2023-04-24T13:22:18;13.20;1.00
5492;DHT22;2768;53.540;10.224;2023-04-24T13:28:11;13.40;1.00
5492;DHT22;2768;53.540;10.224;2023-04-24T13:34:05;13.20;1.00
5492;DHT22;2768;53.540;10.224;2023-04-24T13:39:59;13.20;1.00
5492;DHT22;2768;53.540;10.224;2023-04-24T13:45:52;12.90;1.40
5492;DHT22;2768;53.540;10.224;2023-04-24T13:51:47;12.80;49.50
5492;DHT22;2768;53.540;10.224;2023-04-24T13:57:41;12.90;66.80
5492;DHT22;2768;53.540;10.224;2023-04-24T14:03:34;12.80;78.50
5492;DHT22;2768;53.540;10.224;2023-04-24T14:09:29;12.80;72.90
5492;DHT22;2768;53.540;10.224;2023-04-24T14:15:22;12.90;66.30
5492;DHT22;2768;53.540;10.224;2023-04-24T14:21:15;12.80;66.60
5492;DHT22;2768;53.540;10.224;2023-04-24T14:27:10;12.90;61.20
5492;DHT22;2768;53.540;10.224;2023-04-24T14:33:03;12.70;43.80
5492;DHT22;2768;53.540;10.224;2023-04-24T14:38:57;12.80;28.90
5492;DHT22;2768;53.540;10.224;2023-04-24T14:44:51;13.10;35.70
5492;DHT22;2768;53.540;10.224;2023-04-24T14:50:44;13.00;38.20
5492;DHT22;2768;53.540;10.224;2023-04-24T14:56:37;13.10;33.70
5492;DHT22;2768;53.540;10.224;2023-04-24T15:02:34;13.20;31.30
5492;DHT22;2768;53.540;10.224;2023-04-24T15:08:29;13.00;19.20
5492;DHT22;2768;53.540;10.224;2023-04-24T15:14:22;12.70;33.00
5492;DHT22;2768;53.540;10.224;2023-04-24T15:20:17;12.30;72.10
5492;DHT22;2768;53.540;10.224;2023-04-24T15:26:11;11.40;99.90
5492;DHT22;2768;53.540;10.224;2023-04-24T15:32:04;11.20;99.90
5492;DHT22;2768;53.540;10.224;2023-04-24T15:38:02;11.20;99.90
5492;DHT22;2768;53.540;10.224;2023-04-24T15:43:56;10.90;99.90
5492;DHT22;2768;53.540;10.224;2023-04-24T15:49:49;10.60;99.90
5492;DHT22;2768;53.540;10.224;2023-04-24T15:55:43;10.30;99.90
5492;DHT22;2768;53.540;10.224;2023-04-24T16:01:36;10.50;99.90
5492;DHT22;2768;53.540;10.224;2023-04-24T16:07:30;10.30;99.90
5492;DHT22;2768;53.540;10.224;2023-04-24T16:13:25;10.00;99.90
5492;DHT22;2768;53.540;10.224;2023-04-24T16:19:19;10.00;99.90
5492;DHT22;2768;53.540;10.224;2023-04-24T16:25:12;10.00;99.90
5492;DHT22;2768;53.540;10.224;2023-04-24T16:31:07;9.80;99.90
5492;DHT22;2768;53.540;10.224;2023-04-24T16:37:01;9.40;99.90
5492;DHT22;2768;53.540;10.224;2023-04-24T16:42:55;9.20;99.90
5492;DHT22;2768;53.540;10.224;2023-04-24T16:48:49;9.30;99.90
5492;DHT22;2768;53.540;10.224;2023-04-24T16:54:43;9.20;99.90
5492;DHT22;2768;53.540;10.224;2023-04-24T17:00:36;9.20;99.90
5492;DHT22;2768;53.540;10.224;2023-04-24T17:06:30;9.00;99.90
5492;DHT22;2768;53.540;10.224;2023-04-24T17:12:24;8.80;99.90
5492;DHT22;2768;53.540;10.224;2023-04-24T17:18:17;9.10;99.90
5492;DHT22;2768;53.540;10.224;2023-04-24T17:24:12;9.00;99.90
5492;DHT22;2768;53.540;10.224;2023-04-24T17:30:06;8.90;99.90
5492;DHT22;2768;53.540;10.224;2023-04-24T17:36:00;9.00;99.90
5492;DHT22;2768;53.540;10.224;2023-04-24T17:41:54;9.20;99.90
5492;DHT22;2768;53.540;10.224;2023-04-24T17:47:47;9.20;99.90
5492;DHT22;2768;53.540;10.224;2023-04-24T17:53:42;9.00;99.90
5492;DHT22;2768;53.540;10.224;2023-04-24T17:59:36;9.00;99.90
5492;DHT22;2768;53.540;10.224;2023-04-24T18:05:31;9.00;99.90
5492;DHT22;2768;53.540;10.224;2023-04-24T18:11:24;9.00;99.90
5492;DHT22;2768;53.540;10.224;2023-04-24T18:17:19;9.00;99.90
5492;DHT22;2768;53.540;10.224;2023-04-24T18:23:12;8.90;99.90
5492;DHT22;2768;53.540;10.224;2023-04-24T18:29:06;8.90;99.90
5492;DHT22;2768;53.540;10.224;2023-04-24T18:35:00;8.90;99.90
5492;DHT22;2768;53.540;10.224;2023-04-24T18:40:54;8.90;99.90
5492;DHT22;2768;53.540;10.224;2023-04-24T18:46:48;9.00;99.90
5492;DHT22;2768;53.540;10.224;2023-04-24T18:52:43;9.00;99.90
5492;DHT22;2768;53.540;10.224;2023-04-24T18:58:36;9.00;99.90
5492;DHT22;2768;53.540;10.224;2023-04-24T19:04:29;9.00;99.90
5492;DHT22;2768;53.540;10.224;2023-04-24T19:10:24;8.80;99.90
5492;DHT22;2768;53.540;10.224;2023-04-24T19:16:18;8.80;99.90
5492;DHT22;2768;53.540;10.224;2023-04-24T19:22:11;9.00;99.90
5492;DHT22;2768;53.540;10.224;2023-04-24T19:28:05;8.90;99.90
5492;DHT22;2768;53.540;10.224;2023-04-24T19:33:59;8.90;99.90
5492;DHT22;2768;53.540;10.224;2023-04-24T19:39:53;8.90;99.90
5492;DHT22;2768;53.540;10.224;2023-04-24T19:45:47;8.90;99.90
5492;DHT22;2768;53.540;10.224;2023-04-24T19:51:42;8.80;99.90
5492;DHT22;2768;53.540;10.224;2023-04-24T19:57:35;9.00;99.90
5492;DHT22;2768;53.540;10.224;2023-04-24T20:03:30;9.10;99.90
5492;DHT22;2768;53.540;10.224;2023-04-24T20:09:25;9.00;99.90
5492;DHT22;2768;53.540;10.224;2023-04-24T20:15:20;9.00;99.90
5492;DHT22;2768;53.540;10.224;2023-04-24T20:21:14;8.90;99.90
5492;DHT22;2768;53.540;10.224;2023-04-24T20:27:07;9.10;99.90
5492;DHT22;2768;53.540;10.224;2023-04-24T20:33:01;9.00;99.90
5492;DHT22;2768;53.540;10.224;2023-04-24T20:38:56;8.90;99.90
5492;DHT22;2768;53.540;10.224;2023-04-24T20:44:50;8.80;99.90
5492;DHT22;2768;53.540;10.224;2023-04-24T20:50:44;8.90;99.90
5492;DHT22;2768;53.540;10.224;2023-04-24T20:56:39;8.90;99.90
5492;DHT22;2768;53.540;10.224;2023-04-24T21:02:32;8.90;99.90
5492;DHT22;2768;53.540;10.224;2023-04-24T21:08:26;8.90;99.90
5492;DHT22;2768;53.540;10.224;2023-04-24T21:14:20;8.90;99.90
5492;DHT22;2768;53.540;10.224;2023-04-24T21:20:13;8.90;99.90
5492;DHT22;2768;53.540;10.224;2023-04-24T21:26:07;8.80;99.90
5492;DHT22;2768;53.540;10.224;2023-04-24T21:32:02;8.80;99.90
5492;DHT22;2768;53.540;10.224;2023-04-24T21:37:55;8.70;99.90
5492;DHT22;2768;53.540;10.224;2023-04-24T21:43:49;8.70;99.90
5492;DHT22;2768;53.540;10.224;2023-04-24T21:49:44;8.90;99.90
5492;DHT22;2768;53.540;10.224;2023-04-24T21:55:38;8.80;99.90
5492;DHT22;2768;53.540;10.224;2023-04-24T22:01:31;8.80;99.90
5492;DHT22;2768;53.540;10.224;2023-04-24T22:07:26;8.80;99.90
5492;DHT22;2768;53.540;10.224;2023-04-24T22:13:19;8.80;99.90
5492;DHT22;2768;53.540;10.224;2023-04-24T22:19:13;8.70;99.90
5492;DHT22;2768;53.540;10.224;2023-04-24T22:25:08;8.70;99.90
5492;DHT22;2768;53.540;10.224;2023-04-24T22:31:02;8.80;99.90
5492;DHT22;2768;53.540;10.224;2023-04-24T22:36:55;8.80;99.90
5492;DHT22;2768;53.540;10.224;2023-04-24T22:42:50;8.70;99.90
5492;DHT22;2768;53.540;10.224;2023-04-24T22:48:44;8.70;99.90
5492;DHT22;2768;53.540;10.224;2023-04-24T22:54:39;8.70;99.90
5492;DHT22;2768;53.540;10.224;2023-04-24T23:00:33;8.70;99.90
5492;DHT22;2768;53.540;10.224;2023-04-24T23:06:27;8.60;99.90
5492;DHT22;2768;53.540;10.224;2023-04-24T23:12:21;8.50;1.00
5492;DHT22;2768;53.540;10.224;2023-04-24T23:18:16;8.50;1.00
5492;DHT22;2768;53.540;10.224;2023-04-24T23:24:10;8.40;1.00
5492;DHT22;2768;53.540;10.224;2023-04-24T23:30:04;8.50;1.00
5492;DHT22;2768;53.540;10.224;2023-04-24T23:36:00;8.50;1.00
5492;DHT22;2768;53.540;10.224;2023-04-24T23:41:53;8.40;1.00
5492;DHT22;2768;53.540;10.224;2023-04-24T23:47:47;8.40;1.00
5492;DHT22;2768;53.540;10.224;2023-04-24T23:53:41;8.40;1.00
5492;DHT22;2768;53.540;10.224;2023-04-24T23:59:34;8.30;1.00
